Quick Links (Output Below):   Max & Min Temps   /   Climate Reports   /   Zone Forecasts
River Forecasts   /   Forestry Forecasts   /   Aviation Forecasts   /   Radars   /   Features

Terminal Aerodrome Forecast (Little Rock)

Pick a Site:
Arkadelphia | El Dorado | Fayetteville | Fort Smith | Harrison | Highfill | Hot Springs | Jonesboro
Little Rock | Monticello | Mountain Home | Pine Bluff | Texarkana
 Forecast 

KLIT 210540Z 2106/2206 VRB03KT P6SM SKC
      TEMPO 2106/2110 4SM BR
     FM211000 VRB03KT 4SM BR SKC
      TEMPO 2110/2113 1SM BR BKN005
     FM211400 05004KT P6SM SKC=


 Latest METARs (Observations) 
How to Decode METARs
07Z KLIT 210653Z 26004KT 10SM CLR 14/12 A3005 RMK AO2 SLP178
         T01390117
         
06Z KLIT 210553Z 00000KT 10SM CLR 14/12 A3005 RMK AO2 SLP176 T01390117
         10183 20139 402280094 58002
         
05Z KLIT 210453Z 23003KT 10SM CLR 14/12 A3006 RMK AO2 SLP179
         T01440122
         
04Z KLIT 210353Z 00000KT 10SM CLR 15/12 A3006 RMK AO2 SLP180
         T01500122
         
03Z KLIT 210253Z 22003KT 10SM CLR 17/12 A3005 RMK AO2 SLP178 T01670122
         53008
         
02Z KLIT 210153Z 25006KT 10SM CLR 17/12 A3004 RMK AO2 SLP173
         T01670122
         
01Z KLIT 210053Z 25007KT 10SM CLR 18/12 A3003 RMK AO2 SLP171
         T01780122
         
00Z KLIT 202353Z 23004KT 10SM FEW045 SCT250 18/12 A3003 RMK AO2 SLP170
         T01780122 10228 20178 55001
         
***** Today's Observations (Above) *****


23Z KLIT 202253Z 23005KT 10SM FEW150 SCT250 21/12 A3002 RMK AO2 SLP167
         T02110117
         
22Z KLIT 202153Z 25006KT 10SM FEW075 SCT250 23/12 A3003 RMK AO2 SLP169
         T02280117
         
***** Yesterday's Observations (Above) *****


Back to Main Page
http://www.srh.noaa.gov/lzk/qfcst.php

USA.gov is the U.S. government's official web portal to all federal, state and local government web resources and services.